Main page
METAR-TAF:

METAR-TAF

Airports :

Samui Airport

Ko Samui, Thailand

latitude: 09-32-52N, longitude: 100-03-44E, elevation: 20 m

Current weather observation

The report was made 28 minutes ago, at 07:00 UTC
Wind 9 kt from the South/Southeast, varying between East/Southeast and South
Temperature 31°C
Humidity 59%
Pressure 1010 hPa
Visibility 10 km or more
Few clouds at a height of 2000 ft

METAR: VTSM 270700Z 15009KT 120V180 9999 FEW020 31/22 Q1010 NOSIG

Time: 14:28 (07:28 UTC)

Forecast

The report was made 2 hours and 28 minutes ago, at 05:00 UTC
Forecast valid from 27 at 06 UTC to 28 at 06 UTC
Wind 10 kt from the South/Southeast
Visibility 10 km or more
Few clouds at a height of 2000 ft

TAF: VTSM 270500Z 2706/2806 15010KT 9999 FEW020

Weather observations and forecasts of more than 4000 airports (METAR and TAF reports).

The available stations are represented by yellow and red dots on the map.

Hover mouse over dot to see the name of the station.

Then click to see weather observations and forecasts.

To change the map : click on the green buttons with a black cross to zoom in, on the green button with a dash to zoom out, or on the green arrows for adjacent maps.


METAR-TAF: